Time,TemperatureF,DewpointF,PressureIn,WindDirection,WindDirectionDegrees,WindSpeedMPH,WindSpeedGustMPH,Humidity,HourlyPrecipIn,Conditions,Clouds,dailyrainin,SoftwareType,DateUTC
2013-06-04 00:03:00,67.4,66.2,30.03,North,0,0.0,0.0,96,0.00,,CLR,0.00,VWS V14.01,2013-06-04 04:03:00,
2013-06-04 00:04:00,67.3,66.1,30.03,NE,46,0.0,0.0,96,0.00,,CLR,0.00,VWS V14.01,2013-06-04 04:04:00,
2013-06-04 00:09:00,67.4,66.2,30.04,NNW,342,0.0,0.0,96,0.00,,CLR,0.00,VWS V14.01,2013-06-04 04:09:00,
2013-06-04 00:14:00,67.3,65.8,30.04,North,8,0.0,0.0,95,0.00,,CLR,0.00,VWS V14.01,2013-06-04 04:14:00,
2013-06-04 00:19:00,66.9,65.4,30.04,North,7,0.0,0.0,95,0.00,,CLR,0.00,VWS V14.01,2013-06-04 04:19:00,
2013-06-04 00:24:00,66.8,65.6,30.04,North,7,0.0,0.0,96,0.00,,CLR,0.00,VWS V14.01,2013-06-04 04:24:00,
2013-06-04 00:29:00,66.6,65.4,30.03,North,7,0.0,0.0,96,0.00,,CLR,0.00,VWS V14.01,2013-06-04 04:29:00,
2013-06-04 00:34:00,66.4,65.2,30.03,NE,36,0.0,3.0,96,0.00,,CLR,0.00,VWS V14.01,2013-06-04 04:34:00,
2013-06-04 00:39:00,66.3,65.1,30.03,NE,35,0.0,0.0,96,0.00,,SCT100,0.00,VWS V14.01,2013-06-04 04:39:00,
2013-06-04 00:44:00,66.4,65.5,30.03,NE,36,0.0,0.0,97,0.00,,SCT100,0.00,VWS V14.01,2013-06-04 04:44:00,
2013-06-04 00:49:00,66.1,64.9,30.04,ENE,62,0.0,0.0,96,0.00,,SCT100,0.00,VWS V14.01,2013-06-04 04:49:00,
2013-06-04 00:54:00,66.0,65.1,30.04,ENE,62,0.0,0.0,97,0.00,,SCT100,0.00,VWS V14.01,2013-06-04 04:54:00,
2013-06-04 00:59:00,65.9,65.0,30.04,ENE,62,0.0,0.0,97,0.00,,SCT100,0.00,VWS V14.01,2013-06-04 04:59:00,
2013-06-04 01:04:00,65.8,64.9,30.04,ENE,62,0.0,0.0,97,0.00,,SCT100,0.00,VWS V14.01,2013-06-04 05:04:00,
2013-06-04 01:09:00,65.6,64.7,30.04,ENE,62,0.0,0.0,97,0.00,,SCT100,0.00,VWS V14.01,2013-06-04 05:09:00,
2013-06-04 01:14:00,65.6,64.7,30.04,ENE,62,0.0,0.0,97,0.00,,SCT100,0.00,VWS V14.01,2013-06-04 05:14:00,
2013-06-04 01:19:00,65.5,64.6,30.04,ENE,61,0.0,0.0,97,0.00,,BKN100,0.00,VWS V14.01,2013-06-04 05:19:00,
2013-06-04 01:24:00,65.4,64.5,30.03,ESE,117,0.0,0.0,97,0.00,,BKN100,0.00,VWS V14.01,2013-06-04 05:24:00,
2013-06-04 01:29:00,65.3,64.4,30.03,ESE,123,0.0,0.0,97,0.00,,BKN100,0.00,VWS V14.01,2013-06-04 05:29:00,
2013-06-04 01:34:00,65.5,64.6,30.04,SE,142,0.0,0.0,97,0.00,,BKN100,0.00,VWS V14.01,2013-06-04 05:34:00,
2013-06-04 01:39:00,65.6,65.0,30.03,SE,142,0.0,0.0,98,0.00,,BKN100,0.00,VWS V14.01,2013-06-04 05:39:00,
2013-06-04 01:44:00,65.6,64.7,30.03,SE,142,0.0,0.0,97,0.00,,BKN100,0.00,VWS V14.01,2013-06-04 05:44:00,
2013-06-04 01:49:00,65.6,64.7,30.03,SE,142,0.0,0.0,97,0.00,,BKN100,0.00,VWS V14.01,2013-06-04 05:49:00,
2013-06-04 01:54:00,65.5,64.6,30.03,SE,142,0.0,0.0,97,0.00,,BKN100,0.00,VWS V14.01,2013-06-04 05:54:00,
2013-06-04 01:59:00,65.5,64.6,30.03,SE,142,0.0,0.0,97,0.00,,OVC100,0.00,VWS V14.01,2013-06-04 05:59:00,
2013-06-04 02:04:00,65.5,64.6,30.03,SE,142,0.0,0.0,97,0.00,,OVC100,0.00,VWS V14.01,2013-06-04 06:04:00,
2013-06-04 02:09:00,65.6,64.7,30.03,SSE,148,0.0,0.0,97,0.00,,OVC100,0.00,VWS V14.01,2013-06-04 06:09:00,
2013-06-04 02:14:00,65.7,64.8,30.03,SSE,148,0.0,0.0,97,0.00,,OVC100,0.00,VWS V14.01,2013-06-04 06:14:00,
2013-06-04 02:19:00,65.7,64.8,30.03,SSE,148,0.0,0.0,97,0.00,,OVC080,0.00,VWS V14.01,2013-06-04 06:19:00,
2013-06-04 02:24:00,65.7,64.8,30.03,SSE,148,0.0,0.0,97,0.00,,OVC080,0.00,VWS V14.01,2013-06-04 06:24:00,
2013-06-04 02:29:00,65.8,64.9,30.03,SSE,148,0.0,0.0,97,0.00,,OVC080,0.00,VWS V14.01,2013-06-04 06:29:00,
2013-06-04 02:34:00,65.8,64.9,30.03,SSE,148,0.0,0.0,97,0.00,,OVC080,0.00,VWS V14.01,2013-06-04 06:34:00,
2013-06-04 02:39:00,65.9,65.0,30.03,SSE,148,0.0,0.0,97,0.00,,OVC070,0.00,VWS V14.01,2013-06-04 06:39:00,
2013-06-04 02:44:00,65.8,64.9,30.03,SSE,148,0.0,0.0,97,0.00,,OVC070,0.00,VWS V14.01,2013-06-04 06:44:00,
2013-06-04 02:49:00,65.8,64.9,30.03,SSE,148,0.0,0.0,97,0.00,,OVC070,0.00,VWS V14.01,2013-06-04 06:49:00,
2013-06-04 02:54:00,65.8,64.9,30.03,SSE,148,0.0,0.0,97,0.00,,OVC070,0.00,VWS V14.01,2013-06-04 06:54:00,
2013-06-04 02:59:00,65.9,65.0,30.03,SSE,153,0.0,0.0,97,0.00,,OVC070,0.00,VWS V14.01,2013-06-04 06:59:00,
2013-06-04 03:04:00,65.9,65.3,30.04,South,184,0.0,0.0,98,0.00,,OVC065,0.00,VWS V14.01,2013-06-04 07:04:00,
2013-06-04 03:09:00,66.1,65.5,30.03,WSW,245,0.0,0.0,98,0.00,,OVC065,0.00,VWS V14.01,2013-06-04 07:09:00,
2013-06-04 03:14:00,66.2,65.6,30.03,WSW,240,0.0,0.0,98,0.00,,OVC065,0.00,VWS V14.01,2013-06-04 07:14:00,
2013-06-04 03:19:00,66.3,65.7,30.03,SW,224,0.0,0.0,98,0.01,,OVC070,0.01,VWS V14.01,2013-06-04 07:19:00,
2013-06-04 03:24:00,66.4,65.5,30.04,SW,235,0.0,0.0,97,0.01,,OVC070,0.01,VWS V14.01,2013-06-04 07:24:00,
2013-06-04 03:30:00,66.4,65.5,30.04,WSW,245,0.0,0.0,97,0.03,,OVC070,0.03,VWS V14.01,2013-06-04 07:30:00,
2013-06-04 03:34:00,66.4,65.5,30.04,WSW,246,0.0,0.0,97,0.04,,OVC070,0.04,VWS V14.01,2013-06-04 07:34:00,
2013-06-04 03:40:00,66.5,65.6,30.04,NNW,339,0.0,0.0,97,0.05,,OVC055,0.05,VWS V14.01,2013-06-04 07:40:00,
2013-06-04 03:45:00,66.4,65.5,30.04,NE,36,0.0,0.0,97,0.09,,OVC055,0.09,VWS V14.01,2013-06-04 07:45:00,
2013-06-04 03:50:00,66.5,65.6,30.03,North,11,0.0,0.0,97,0.12,,OVC055,0.12,VWS V14.01,2013-06-04 07:50:00,
2013-06-04 03:55:00,66.3,65.4,30.03,NE,49,0.0,0.0,97,0.14,,OVC055,0.14,VWS V14.01,2013-06-04 07:55:00,
2013-06-04 04:00:00,66.2,65.3,30.03,NE,39,0.0,0.0,97,0.14,,RA,0.14,VWS V14.01,2013-06-04 08:00:00,
2013-06-04 04:05:00,66.2,65.3,30.03,NE,46,0.0,0.0,97,0.14,,RA,0.14,VWS V14.01,2013-06-04 08:05:00,
2013-06-04 04:10:00,66.1,65.2,30.03,NE,36,0.0,0.0,97,0.14,,RA,0.14,VWS V14.01,2013-06-04 08:10:00,
2013-06-04 04:15:00,66.1,65.2,30.03,North,354,1.0,1.0,97,0.14,,RA,0.14,VWS V14.01,2013-06-04 08:15:00,
2013-06-04 04:20:00,66.0,65.1,30.03,NE,38,1.0,1.0,97,0.13,,-RA,0.14,VWS V14.01,2013-06-04 08:20:00,
2013-06-04 04:25:00,66.0,65.1,30.03,NE,47,1.0,1.0,97,0.13,,-RA,0.14,VWS V14.01,2013-06-04 08:25:00,
2013-06-04 04:30:00,66.0,65.1,30.03,NE,41,0.0,0.0,97,0.11,,-RA,0.14,VWS V14.01,2013-06-04 08:30:00,
2013-06-04 04:45:00,66.1,65.5,30.04,North,0,0.0,0.0,98,0.07,,-RA,0.14,VWS V14.01,2013-06-04 08:45:00,
2013-06-04 04:50:00,66.1,65.5,30.04,North,360,0.0,0.0,98,0.02,,OVC075,0.14,VWS V14.01,2013-06-04 08:50:00,
2013-06-04 04:55:00,66.0,65.1,30.04,North,360,0.0,0.0,97,0.00,,OVC075,0.14,VWS V14.01,2013-06-04 08:55:00,
2013-06-04 05:00:00,66.1,65.5,30.04,North,360,0.0,0.0,98,0.00,,-RA,0.14,VWS V14.01,2013-06-04 09:00:00,
2013-06-04 05:05:00,66.0,65.1,30.04,NE,43,0.0,1.0,97,0.00,,-RA,0.14,VWS V14.01,2013-06-04 09:05:00,
2013-06-04 05:10:00,65.9,65.3,30.04,NE,44,0.0,0.0,98,0.00,,-RA,0.14,VWS V14.01,2013-06-04 09:10:00,
2013-06-04 05:15:00,65.9,65.3,30.04,NE,44,0.0,0.0,98,0.00,,-RA,0.14,VWS V14.01,2013-06-04 09:15:00,
2013-06-04 05:20:00,65.8,65.2,30.05,NE,44,0.0,0.0,98,0.00,,OVC075,0.14,VWS V14.01,2013-06-04 09:20:00,
2013-06-04 05:25:00,65.7,65.1,30.05,NE,44,0.0,0.0,98,0.00,,OVC075,0.14,VWS V14.01,2013-06-04 09:25:00,
2013-06-04 05:30:00,65.6,65.0,30.05,NE,44,0.0,0.0,98,0.00,,OVC075,0.14,VWS V14.01,2013-06-04 09:30:00,
2013-06-04 05:35:00,65.5,64.9,30.05,NE,44,0.0,0.0,98,0.00,,OVC075,0.14,VWS V14.01,2013-06-04 09:35:00,
2013-06-04 05:40:00,65.4,64.8,30.05,NE,41,0.0,0.0,98,0.00,,OVC075,0.14,VWS V14.01,2013-06-04 09:40:00,
2013-06-04 05:45:00,65.4,64.8,30.05,NE,41,0.0,0.0,98,0.00,,,0.14,VWS V14.01,2013-06-04 09:45:00,
2013-06-04 05:50:00,65.3,64.7,30.05,NE,41,0.0,0.0,98,0.00,,,0.14,VWS V14.01,2013-06-04 09:50:00,
2013-06-04 05:55:00,65.2,64.6,30.05,WNW,293,0.0,1.0,98,0.00,,,0.14,VWS V14.01,2013-06-04 09:55:00,
2013-06-04 06:00:00,65.1,64.5,30.06,WNW,294,0.0,0.0,98,0.00,,,0.14,VWS V14.01,2013-06-04 10:00:00,
2013-06-04 06:05:00,65.0,64.4,30.06,WNW,294,0.0,0.0,98,0.00,,,0.14,VWS V14.01,2013-06-04 10:05:00,
2013-06-04 06:10:00,64.8,64.2,30.06,NW,311,2.0,3.0,98,0.00,,,0.14,VWS V14.01,2013-06-04 10:10:00,
2013-06-04 06:15:00,64.7,64.1,30.06,WNW,298,3.0,3.0,98,0.00,,,0.14,VWS V14.01,2013-06-04 10:15:00,
2013-06-04 06:20:00,64.5,63.6,30.07,WNW,289,0.0,3.0,97,0.00,,OVC041,0.14,VWS V14.01,2013-06-04 10:20:00,
2013-06-04 06:25:00,64.5,63.9,30.07,WNW,298,0.0,0.0,98,0.00,,OVC041,0.14,VWS V14.01,2013-06-04 10:25:00,
2013-06-04 06:30:00,64.3,63.4,30.07,WNW,295,0.0,0.0,97,0.00,,OVC041,0.14,VWS V14.01,2013-06-04 10:30:00,
2013-06-04 06:35:00,64.3,63.4,30.07,WNW,295,0.0,0.0,97,0.00,,OVC041,0.14,VWS V14.01,2013-06-04 10:35:00,
2013-06-04 06:40:00,64.2,63.3,30.07,NW,309,0.0,2.0,97,0.00,,OVC027,0.14,VWS V14.01,2013-06-04 10:40:00,
2013-06-04 06:45:00,64.3,63.4,30.07,NW,311,0.0,0.0,97,0.00,,OVC027,0.14,VWS V14.01,2013-06-04 10:45:00,
2013-06-04 06:50:00,64.3,63.4,30.07,NW,309,0.0,0.0,97,0.00,,OVC027,0.14,VWS V14.01,2013-06-04 10:50:00,
2013-06-04 06:55:00,64.3,63.4,30.07,NW,309,0.0,0.0,97,0.00,,OVC027,0.14,VWS V14.01,2013-06-04 10:55:00,
2013-06-04 07:00:00,64.2,63.3,30.08,NW,309,0.0,0.0,97,0.00,,OVC029,0.14,VWS V14.01,2013-06-04 11:00:00,
2013-06-04 07:05:00,64.3,63.4,30.08,NW,309,0.0,0.0,97,0.00,,OVC029,0.14,VWS V14.01,2013-06-04 11:05:00,
2013-06-04 07:10:00,64.3,63.4,30.08,NW,311,0.0,0.0,97,0.00,,OVC029,0.14,VWS V14.01,2013-06-04 11:10:00,
2013-06-04 07:15:00,64.4,63.5,30.08,NW,309,0.0,0.0,97,0.00,,OVC029,0.14,VWS V14.01,2013-06-04 11:15:00,
2013-06-04 07:20:00,64.5,63.6,30.08,WNW,287,0.0,0.0,97,0.00,,OVC033,0.14,VWS V14.01,2013-06-04 11:20:00,
2013-06-04 07:25:00,64.9,64.3,30.09,WNW,288,0.0,0.0,98,0.00,,OVC033,0.14,VWS V14.01,2013-06-04 11:25:00,
2013-06-04 07:30:00,65.0,64.1,30.09,West,276,0.0,0.0,97,0.00,,OVC033,0.14,VWS V14.01,2013-06-04 11:30:00,
2013-06-04 07:35:00,65.1,63.9,30.09,West,276,0.0,0.0,96,0.00,,OVC033,0.14,VWS V14.01,2013-06-04 11:35:00,
2013-06-04 07:40:00,65.5,64.6,30.09,West,276,0.0,0.0,97,0.00,,OVC033,0.14,VWS V14.01,2013-06-04 11:40:00,
2013-06-04 07:45:00,66.2,65.3,30.09,West,276,0.0,0.0,97,0.00,,OVC033,0.14,VWS V14.01,2013-06-04 11:45:00,
2013-06-04 07:50:00,66.8,65.0,30.09,West,276,0.0,0.0,94,0.00,,OVC033,0.14,VWS V14.01,2013-06-04 11:50:00,
2013-06-04 07:55:00,67.4,65.6,30.09,West,276,0.0,0.0,94,0.00,,OVC033,0.14,VWS V14.01,2013-06-04 11:55:00,
2013-06-04 08:00:00,67.9,65.5,30.09,WSW,239,0.0,0.0,92,0.00,,OVC038,0.14,VWS V14.01,2013-06-04 12:00:00,
2013-06-04 08:05:00,68.4,65.4,30.09,SW,224,0.0,1.0,90,0.00,,OVC038,0.14,VWS V14.01,2013-06-04 12:05:00,
2013-06-04 08:10:00,68.8,65.8,30.09,NW,316,1.0,2.0,90,0.00,,OVC038,0.14,VWS V14.01,2013-06-04 12:10:00,
2013-06-04 08:15:00,68.4,64.7,30.09,NW,311,0.0,1.0,88,0.00,,OVC038,0.14,VWS V14.01,2013-06-04 12:15:00,
2013-06-04 08:20:00,68.4,65.0,30.09,WNW,302,0.0,0.0,89,0.00,,OVC038,0.14,VWS V14.01,2013-06-04 12:20:00,
2013-06-04 08:25:00,68.9,65.5,30.09,NW,311,0.0,0.0,89,0.00,,OVC038,0.14,VWS V14.01,2013-06-04 12:25:00,
2013-06-04 08:30:00,69.2,65.5,30.10,NW,311,0.0,0.0,88,0.00,,OVC038,0.14,VWS V14.01,2013-06-04 12:30:00,
2013-06-04 08:35:00,69.3,64.6,30.10,NW,313,1.0,3.0,85,0.00,,OVC038,0.14,VWS V14.01,2013-06-04 12:35:00,
2013-06-04 08:40:00,69.1,64.4,30.10,NW,322,1.0,1.0,85,0.00,,OVC038,0.14,VWS V14.01,2013-06-04 12:40:00,
2013-06-04 08:45:00,69.0,65.3,30.10,NE,36,1.0,2.0,88,0.00,,OVC033,0.14,VWS V14.01,2013-06-04 12:45:00,
2013-06-04 08:50:00,68.4,64.7,30.10,NNE,30,1.0,2.0,88,0.00,,OVC033,0.14,VWS V14.01,2013-06-04 12:50:00,
2013-06-04 08:55:00,68.3,64.9,30.11,NW,314,0.0,1.0,89,0.00,,OVC033,0.14,VWS V14.01,2013-06-04 12:55:00,
2013-06-04 09:00:00,68.4,64.7,30.11,NW,322,0.0,0.0,88,0.00,,OVC042,0.14,VWS V14.01,2013-06-04 13:00:00,
2013-06-04 09:05:00,68.3,64.9,30.11,NNE,15,0.0,0.0,89,0.00,,OVC042,0.14,VWS V14.01,2013-06-04 13:05:00,
2013-06-04 09:10:00,67.9,64.5,30.11,North,1,0.0,0.0,89,0.00,,OVC042,0.14,VWS V14.01,2013-06-04 13:10:00,
2013-06-04 09:15:00,67.8,64.4,30.11,NNE,27,0.0,1.0,89,0.00,,OVC042,0.14,VWS V14.01,2013-06-04 13:15:00,
2013-06-04 09:20:00,67.7,64.7,30.12,NNE,30,0.0,0.0,90,0.00,,OVC042,0.14,VWS V14.01,2013-06-04 13:20:00,
2013-06-04 09:25:00,67.7,64.7,30.12,NNE,27,0.0,0.0,90,0.00,,-RA,0.14,VWS V14.01,2013-06-04 13:25:00,
2013-06-04 09:30:00,67.7,64.3,30.12,NNW,328,0.0,0.0,89,0.00,,-RA,0.14,VWS V14.01,2013-06-04 13:30:00,
2013-06-04 09:56:00,68.8,65.1,30.12,NNE,22,2.0,4.0,88,0.00,,-RA,0.14,VWS V14.01,2013-06-04 13:56:00,
2013-06-04 10:01:00,69.2,64.8,30.12,NE,53,1.0,2.0,86,0.00,,OVC041,0.14,VWS V14.01,2013-06-04 14:01:00,
2013-06-04 10:06:00,69.6,64.9,30.12,WNW,302,3.0,5.0,85,0.00,,OVC041,0.14,VWS V14.01,2013-06-04 14:06:00,
2013-06-04 10:11:00,70.1,65.7,30.13,NE,53,5.0,8.0,86,0.00,,OVC041,0.14,VWS V14.01,2013-06-04 14:11:00,
2013-06-04 10:17:00,70.3,64.9,30.13,NW,324,2.0,4.0,83,0.00,,OVC041,0.14,VWS V14.01,2013-06-04 14:17:00,
2013-06-04 10:22:00,70.9,66.2,30.12,SSE,163,0.0,1.0,85,0.00,,OVC080,0.14,VWS V14.01,2013-06-04 14:22:00,
2013-06-04 10:27:00,72.2,66.8,30.12,NW,322,1.0,7.0,83,0.00,,OVC080,0.14,VWS V14.01,2013-06-04 14:27:00,
2013-06-04 10:32:00,72.3,64.3,30.12,ENE,61,1.0,5.0,76,0.00,,OVC080,0.14,VWS V14.01,2013-06-04 14:32:00,
2013-06-04 10:37:00,72.4,64.4,30.12,NNW,336,3.0,5.0,76,0.00,,OVC080,0.14,VWS V14.01,2013-06-04 14:37:00,
2013-06-04 10:42:00,72.2,65.0,30.12,NE,46,6.0,7.0,78,0.00,,OVC065,0.14,VWS V14.01,2013-06-04 14:42:00,
2013-06-04 10:47:00,71.9,63.2,30.13,NE,39,4.0,8.0,74,0.00,,OVC065,0.14,VWS V14.01,2013-06-04 14:47:00,
2013-06-04 10:52:00,71.6,63.6,30.13,ENE,73,1.0,6.0,76,0.00,,OVC065,0.14,VWS V14.01,2013-06-04 14:52:00,
2013-06-04 10:57:00,71.6,63.3,30.13,NE,56,5.0,7.0,75,0.00,,OVC065,0.14,VWS V14.01,2013-06-04 14:57:00,
2013-06-04 11:02:00,71.6,63.3,30.13,ENE,74,1.0,4.0,75,0.00,,OVC065,0.14,VWS V14.01,2013-06-04 15:02:00,
2013-06-04 11:07:00,72.0,62.5,30.14,NE,47,7.0,8.0,72,0.00,,OVC065,0.14,VWS V14.01,2013-06-04 15:07:00,
2013-06-04 11:12:00,71.6,62.5,30.14,NNW,336,1.0,4.0,73,0.00,,OVC065,0.14,VWS V14.01,2013-06-04 15:12:00,
2013-06-04 11:17:00,71.8,63.1,30.14,NE,47,9.0,9.0,74,0.00,,OVC065,0.14,VWS V14.01,2013-06-04 15:17:00,
2013-06-04 11:22:00,71.7,63.4,30.14,ENE,68,4.0,7.0,75,0.00,,BKN065,0.14,VWS V14.01,2013-06-04 15:22:00,
2013-06-04 11:27:00,72.2,63.1,30.14,NNE,30,7.0,9.0,73,0.00,,BKN065,0.14,VWS V14.01,2013-06-04 15:27:00,
2013-06-04 11:32:00,72.6,63.5,30.14,North,5,7.0,7.0,73,0.00,,BKN065,0.14,VWS V14.01,2013-06-04 15:32:00,
2013-06-04 11:37:00,72.7,63.5,30.14,North,356,4.0,7.0,73,0.00,,BKN065,0.14,VWS V14.01,2013-06-04 15:37:00,
2013-06-04 11:42:00,72.7,63.5,30.14,NNE,13,4.0,8.0,73,0.00,,OVC044,0.14,VWS V14.01,2013-06-04 15:42:00,
2013-06-04 11:47:00,72.6,63.5,30.14,North,5,2.0,9.0,73,0.00,,OVC044,0.14,VWS V14.01,2013-06-04 15:47:00,
2013-06-04 11:52:00,72.8,64.4,30.14,North,354,2.0,4.0,75,0.00,,OVC044,0.14,VWS V14.01,2013-06-04 15:52:00,
2013-06-04 11:57:00,73.4,63.8,30.14,North,349,5.0,9.0,72,0.00,,OVC044,0.14,VWS V14.01,2013-06-04 15:57:00,
2013-06-04 12:02:00,73.8,64.6,30.14,NNE,15,5.0,6.0,73,0.00,,OVC044,0.14,VWS V14.01,2013-06-04 16:02:00,
2013-06-04 12:07:00,74.1,64.1,30.14,NNE,25,7.0,10.0,71,0.00,,OVC044,0.14,VWS V14.01,2013-06-04 16:07:00,
2013-06-04 12:12:00,73.1,63.2,30.14,SE,131,1.0,5.0,71,0.00,,OVC044,0.14,VWS V14.01,2013-06-04 16:12:00,
2013-06-04 12:17:00,73.6,63.6,30.14,NE,50,4.0,4.0,71,0.00,,OVC044,0.14,VWS V14.01,2013-06-04 16:17:00,
2013-06-04 12:22:00,73.7,63.7,30.14,NNE,29,9.0,9.0,71,0.00,,OVC060,0.14,VWS V14.01,2013-06-04 16:22:00,
2013-06-04 12:27:00,73.5,63.1,30.14,North,358,1.0,7.0,70,0.00,,OVC060,0.14,VWS V14.01,2013-06-04 16:27:00,
2013-06-04 12:32:00,74.0,64.4,30.14,NNW,345,3.0,6.0,72,0.00,,OVC060,0.14,VWS V14.01,2013-06-04 16:32:00,
2013-06-04 12:37:00,73.9,63.5,30.14,ENE,58,2.0,4.0,70,0.00,,OVC060,0.14,VWS V14.01,2013-06-04 16:37:00,
2013-06-04 12:42:00,74.2,64.2,30.14,NE,37,1.0,9.0,71,0.00,,OVC060,0.14,VWS V14.01,2013-06-04 16:42:00,
2013-06-04 12:47:00,74.0,64.0,30.14,North,349,5.0,8.0,71,0.00,,OVC060,0.14,VWS V14.01,2013-06-04 16:47:00,
2013-06-04 12:52:00,74.0,65.6,30.14,NW,322,3.0,4.0,75,0.00,,OVC060,0.14,VWS V14.01,2013-06-04 16:52:00,
2013-06-04 12:57:00,74.5,64.9,30.14,NE,53,8.0,8.0,72,0.00,,OVC060,0.14,VWS V14.01,2013-06-04 16:57:00,
2013-06-04 13:02:00,74.2,64.6,30.14,NNW,327,2.0,10.0,72,0.00,,BKN065,0.14,VWS V14.01,2013-06-04 17:02:00,
2013-06-04 13:07:00,73.8,64.6,30.13,NNE,12,2.0,9.0,73,0.00,,BKN065,0.14,VWS V14.01,2013-06-04 17:07:00,
2013-06-04 13:12:00,74.6,65.8,30.13,NW,305,6.0,6.0,74,0.00,,BKN065,0.14,VWS V14.01,2013-06-04 17:12:00,
2013-06-04 13:17:00,74.8,65.6,30.13,NW,319,4.0,7.0,73,0.00,,BKN065,0.14,VWS V14.01,2013-06-04 17:17:00,
2013-06-04 13:22:00,75.3,64.8,30.14,ENE,62,6.0,8.0,70,0.00,,BKN065,0.14,VWS V14.01,2013-06-04 17:22:00,
2013-06-04 13:27:00,74.8,66.3,30.13,NE,50,2.0,5.0,75,0.00,,BKN065,0.14,VWS V14.01,2013-06-04 17:27:00,
2013-06-04 13:32:00,75.0,65.0,30.13,NNE,12,7.0,10.0,71,0.00,,BKN065,0.14,VWS V14.01,2013-06-04 17:32:00,
2013-06-04 13:37:00,74.8,65.6,30.13,NNE,27,4.0,5.0,73,0.00,,BKN065,0.14,VWS V14.01,2013-06-04 17:37:00,
2013-06-04 13:42:00,74.5,65.3,30.13,NNW,330,3.0,4.0,73,0.00,,OVC047,0.14,VWS V14.01,2013-06-04 17:42:00,
2013-06-04 13:47:00,74.1,65.3,30.13,NE,43,2.0,4.0,74,0.00,,OVC047,0.14,VWS V14.01,2013-06-04 17:47:00,
2013-06-04 13:52:00,74.0,65.6,30.13,NNE,33,4.0,6.0,75,0.00,,OVC047,0.14,VWS V14.01,2013-06-04 17:52:00,
2013-06-04 13:57:00,74.3,65.5,30.13,North,358,3.0,3.0,74,0.00,,OVC047,0.14,VWS V14.01,2013-06-04 17:57:00,
2013-06-04 14:02:00,74.3,65.5,30.13,North,358,3.0,3.0,74,0.00,,OVC049,0.14,VWS V14.01,2013-06-04 18:02:00,
2013-06-04 14:07:00,74.3,65.5,30.12,North,358,3.0,3.0,74,0.00,,OVC049,0.14,VWS V14.01,2013-06-04 18:07:00,
2013-06-04 14:12:00,74.3,65.5,30.12,North,358,3.0,3.0,74,0.00,,OVC049,0.14,VWS V14.01,2013-06-04 18:12:00,
2013-06-04 14:17:00,74.3,65.5,30.12,North,358,3.0,3.0,74,0.00,,OVC049,0.14,VWS V14.01,2013-06-04 18:17:00,
2013-06-04 14:22:00,74.3,65.5,30.12,North,358,3.0,3.0,74,0.00,,SCT049,0.14,VWS V14.01,2013-06-04 18:22:00,
2013-06-04 14:27:00,74.3,65.5,30.12,North,358,3.0,3.0,74,0.00,,SCT049,0.14,VWS V14.01,2013-06-04 18:27:00,
2013-06-04 14:32:00,74.3,65.5,30.12,North,358,3.0,3.0,74,0.00,,SCT049,0.14,VWS V14.01,2013-06-04 18:32:00,
2013-06-04 14:37:00,74.3,65.5,30.12,North,358,3.0,3.0,74,0.00,,SCT049,0.14,VWS V14.01,2013-06-04 18:37:00,
2013-06-04 14:42:00,74.3,65.5,30.12,North,358,3.0,3.0,74,0.00,,SCT024,0.14,VWS V14.01,2013-06-04 18:42:00,
2013-06-04 14:47:00,74.3,65.5,30.12,North,358,3.0,3.0,74,0.00,,SCT024,0.14,VWS V14.01,2013-06-04 18:47:00,
2013-06-04 14:52:00,74.3,65.5,30.12,North,358,3.0,3.0,74,0.00,,SCT024,0.14,VWS V14.01,2013-06-04 18:52:00,
2013-06-04 14:57:00,74.3,65.5,30.12,North,358,3.0,3.0,74,0.00,,SCT024,0.14,VWS V14.01,2013-06-04 18:57:00,
2013-06-04 15:00:00,74.3,65.5,30.12,North,358,3.0,3.0,74,0.00,,SCT030,0.14,VWS V14.01,2013-06-04 19:00:00,
2013-06-04 15:02:00,74.3,65.5,30.12,North,358,3.0,3.0,74,0.00,,SCT030,0.14,VWS V14.01,2013-06-04 19:02:00,
2013-06-04 15:07:00,74.3,65.5,30.12,North,358,3.0,3.0,74,0.00,,SCT030,0.14,VWS V14.01,2013-06-04 19:07:00,
2013-06-04 15:12:00,74.3,65.5,30.12,North,358,3.0,3.0,74,0.00,,SCT030,0.14,VWS V14.01,2013-06-04 19:12:00,
2013-06-04 15:17:00,74.3,65.5,30.12,North,358,3.0,3.0,74,0.00,,SCT030,0.00,VWS V14.01,2013-06-04 19:17:00,
2013-06-04 15:24:00,0.0,0.0,30.12,North,0,0.0,0.0,0,0.00,,BKN060,0.00,VWS V14.01,2013-06-04 19:24:00,